sensor_id;sensor_type;location;lat;lon;timestamp;pressure;altitude;pressure_sealevel;temperature;humidity
42725;BME280;28369;44.046;23.014;2023-05-29T00:00:51;100978.91;;;28.03;49.09
42725;BME280;28369;44.046;23.014;2023-05-29T00:03:17;100989.97;;;28.54;48.24
42725;BME280;28369;44.046;23.014;2023-05-29T00:05:42;100988.28;;;28.24;48.25
42725;BME280;28369;44.046;23.014;2023-05-29T00:08:08;100996.91;;;27.74;49.45
42725;BME280;28369;44.046;23.014;2023-05-29T00:10:33;101001.22;;;27.63;50.29
42725;BME280;28369;44.046;23.014;2023-05-29T00:13:00;101015.78;;;27.62;49.86
42725;BME280;28369;44.046;23.014;2023-05-29T00:15:26;100909.31;;;26.92;50.11
42725;BME280;28369;44.046;23.014;2023-05-29T00:17:52;100948.00;;;27.28;50.07
42725;BME280;28369;44.046;23.014;2023-05-29T00:20:18;100965.66;;;27.42;49.79
42725;BME280;28369;44.046;23.014;2023-05-29T00:22:43;100956.72;;;27.77;48.85
42725;BME280;28369;44.046;23.014;2023-05-29T00:25:09;100997.25;;;27.54;49.67
42725;BME280;28369;44.046;23.014;2023-05-29T00:27:35;100981.47;;;26.97;50.94
42725;BME280;28369;44.046;23.014;2023-05-29T00:30:01;100958.06;;;26.79;51.19
42725;BME280;28369;44.046;23.014;2023-05-29T00:32:28;101012.75;;;26.86;51.70
42725;BME280;28369;44.046;23.014;2023-05-29T00:34:54;100985.69;;;26.44;52.45
42725;BME280;28369;44.046;23.014;2023-05-29T00:37:21;100992.16;;;27.03;51.11
42725;BME280;28369;44.046;23.014;2023-05-29T00:39:47;100998.56;;;27.21;50.62
42725;BME280;28369;44.046;23.014;2023-05-29T00:42:13;100998.16;;;27.48;50.32
42725;BME280;28369;44.046;23.014;2023-05-29T00:44:38;101009.22;;;27.70;49.87
42725;BME280;28369;44.046;23.014;2023-05-29T00:47:04;100997.38;;;27.71;49.54
42725;BME280;28369;44.046;23.014;2023-05-29T00:49:29;100998.63;;;27.92;48.96
42725;BME280;28369;44.046;23.014;2023-05-29T00:51:55;100996.78;;;28.04;48.65
42725;BME280;28369;44.046;23.014;2023-05-29T00:54:24;100882.06;;;27.48;48.17
42725;BME280;28369;44.046;23.014;2023-05-29T00:56:52;100989.78;;;28.32;47.39
42725;BME280;28369;44.046;23.014;2023-05-29T00:59:18;101006.53;;;28.58;47.19
42725;BME280;28369;44.046;23.014;2023-05-29T01:01:47;100996.44;;;28.53;46.90
42725;BME280;28369;44.046;23.014;2023-05-29T01:04:14;101015.94;;;28.67;46.82
42725;BME280;28369;44.046;23.014;2023-05-29T01:06:40;100956.59;;;28.20;46.97
42725;BME280;28369;44.046;23.014;2023-05-29T01:09:06;100991.94;;;28.59;46.81
42725;BME280;28369;44.046;23.014;2023-05-29T01:14:10;100997.25;;;27.89;48.35
42725;BME280;28369;44.046;23.014;2023-05-29T01:16:48;100998.09;;;27.24;49.82
42725;BME280;28369;44.046;23.014;2023-05-29T01:19:41;101002.53;;;27.72;48.91
42725;BME280;28369;44.046;23.014;2023-05-29T01:27:21;100889.41;;;26.93;49.50
42725;BME280;28369;44.046;23.014;2023-05-29T01:29:51;100959.53;;;27.35;49.53
42725;BME280;28369;44.046;23.014;2023-05-29T01:32:21;100996.31;;;27.84;49.07
42725;BME280;28369;44.046;23.014;2023-05-29T01:34:46;100966.00;;;27.82;48.77
42725;BME280;28369;44.046;23.014;2023-05-29T01:37:12;100995.59;;;28.12;48.59
42725;BME280;28369;44.046;23.014;2023-05-29T01:39:38;100972.59;;;28.09;47.98
42725;BME280;28369;44.046;23.014;2023-05-29T01:42:04;100945.16;;;28.30;47.32
42725;BME280;28369;44.046;23.014;2023-05-29T01:44:30;100985.28;;;28.61;47.13
42725;BME280;28369;44.046;23.014;2023-05-29T01:46:57;100987.31;;;28.42;47.39
42725;BME280;28369;44.046;23.014;2023-05-29T01:49:26;100980.91;;;28.08;47.59
42725;BME280;28369;44.046;23.014;2023-05-29T01:51:53;100857.19;;;27.34;47.70
42725;BME280;28369;44.046;23.014;2023-05-29T01:54:18;100978.03;;;28.26;47.40
42725;BME280;28369;44.046;23.014;2023-05-29T01:56:45;100967.66;;;28.47;46.84
42725;BME280;28369;44.046;23.014;2023-05-29T01:59:12;100838.13;;;27.76;46.58
42725;BME280;28369;44.046;23.014;2023-05-29T02:01:41;100967.06;;;28.45;47.11
42725;BME280;28369;44.046;23.014;2023-05-29T02:04:07;100958.63;;;28.41;46.62
42725;BME280;28369;44.046;23.014;2023-05-29T02:06:32;100965.19;;;28.45;46.63
42725;BME280;28369;44.046;23.014;2023-05-29T02:08:58;100962.00;;;28.49;46.93
42725;BME280;28369;44.046;23.014;2023-05-29T02:11:24;100961.56;;;28.40;46.95
42725;BME280;28369;44.046;23.014;2023-05-29T02:13:51;100956.91;;;28.35;46.86
42725;BME280;28369;44.046;23.014;2023-05-29T02:16:17;100964.88;;;28.30;47.06
42725;BME280;28369;44.046;23.014;2023-05-29T02:18:45;100936.13;;;28.24;47.04
42725;BME280;28369;44.046;23.014;2023-05-29T02:21:11;100837.31;;;27.75;46.61
42725;BME280;28369;44.046;23.014;2023-05-29T02:23:36;100974.47;;;28.61;46.54
42725;BME280;28369;44.046;23.014;2023-05-29T02:26:05;100947.44;;;28.50;46.76
42725;BME280;28369;44.046;23.014;2023-05-29T02:28:31;100847.81;;;28.01;46.14
42725;BME280;28369;44.046;23.014;2023-05-29T02:30:56;100963.25;;;28.58;46.28
42725;BME280;28369;44.046;23.014;2023-05-29T02:33:22;100971.63;;;28.68;46.15
42725;BME280;28369;44.046;23.014;2023-05-29T02:35:47;100943.66;;;28.51;46.26
42725;BME280;28369;44.046;23.014;2023-05-29T02:38:13;100941.06;;;28.56;46.28
42725;BME280;28369;44.046;23.014;2023-05-29T02:40:38;100972.53;;;28.74;46.18
42725;BME280;28369;44.046;23.014;2023-05-29T02:43:05;100965.03;;;28.64;46.21
42725;BME280;28369;44.046;23.014;2023-05-29T02:45:31;100984.53;;;28.66;46.64
42725;BME280;28369;44.046;23.014;2023-05-29T02:47:56;100926.25;;;28.30;46.14
42725;BME280;28369;44.046;23.014;2023-05-29T02:50:22;100973.16;;;28.52;46.23
42725;BME280;28369;44.046;23.014;2023-05-29T02:52:47;100970.31;;;28.59;46.33
42725;BME280;28369;44.046;23.014;2023-05-29T02:55:13;100966.91;;;28.23;47.40
42725;BME280;28369;44.046;23.014;2023-05-29T02:57:38;100999.66;;;28.38;47.04
42725;BME280;28369;44.046;23.014;2023-05-29T03:00:04;100952.34;;;28.12;47.45
42725;BME280;28369;44.046;23.014;2023-05-29T03:02:31;100995.88;;;28.39;47.21
42725;BME280;28369;44.046;23.014;2023-05-29T03:05:00;100966.06;;;28.34;46.99
42725;BME280;28369;44.046;23.014;2023-05-29T03:07:25;100896.09;;;27.97;46.89
42725;BME280;28369;44.046;23.014;2023-05-29T03:09:51;101005.19;;;28.32;47.26
42725;BME280;28369;44.046;23.014;2023-05-29T03:12:17;100969.84;;;28.62;46.42
42725;BME280;28369;44.046;23.014;2023-05-29T03:14:44;101000.91;;;28.48;46.93
42725;BME280;28369;44.046;23.014;2023-05-29T03:17:10;100972.19;;;28.30;47.20
42725;BME280;28369;44.046;23.014;2023-05-29T03:19:38;101008.66;;;28.56;47.17
42725;BME280;28369;44.046;23.014;2023-05-29T03:22:04;100984.50;;;28.37;47.12
42725;BME280;28369;44.046;23.014;2023-05-29T03:24:29;100987.56;;;28.29;47.35
42725;BME280;28369;44.046;23.014;2023-05-29T03:26:55;100989.91;;;28.37;47.45
42725;BME280;28369;44.046;23.014;2023-05-29T03:29:21;100987.88;;;28.44;47.26
42725;BME280;28369;44.046;23.014;2023-05-29T03:31:47;100996.41;;;28.65;46.85
42725;BME280;28369;44.046;23.014;2023-05-29T03:34:12;100968.63;;;28.41;46.71
42725;BME280;28369;44.046;23.014;2023-05-29T03:36:41;101007.97;;;28.89;46.54
42725;BME280;28369;44.046;23.014;2023-05-29T03:39:07;101001.91;;;28.18;47.80
42725;BME280;28369;44.046;23.014;2023-05-29T03:41:33;100972.69;;;27.91;47.37
42725;BME280;28369;44.046;23.014;2023-05-29T03:43:58;101006.53;;;28.58;46.97
42725;BME280;28369;44.046;23.014;2023-05-29T03:46:24;101008.06;;;29.40;45.40
42725;BME280;28369;44.046;23.014;2023-05-29T03:48:49;101037.09;;;30.13;43.97
42725;BME280;28369;44.046;23.014;2023-05-29T03:51:15;101020.75;;;30.47;42.96
42725;BME280;28369;44.046;23.014;2023-05-29T03:53:41;101023.59;;;31.07;42.27
42725;BME280;28369;44.046;23.014;2023-05-29T03:56:06;101038.41;;;31.26;41.33
42725;BME280;28369;44.046;23.014;2023-05-29T03:58:32;101048.50;;;30.54;42.68
42725;BME280;28369;44.046;23.014;2023-05-29T04:00:57;101030.03;;;29.95;43.37
42725;BME280;28369;44.046;23.014;2023-05-29T04:03:23;101037.34;;;30.78;42.42
42725;BME280;28369;44.046;23.014;2023-05-29T04:05:48;100953.47;;;30.71;40.92
42725;BME280;28369;44.046;23.014;2023-05-29T04:08:14;101047.34;;;30.50;42.46
42725;BME280;28369;44.046;23.014;2023-05-29T04:10:40;101049.88;;;30.57;42.29
42725;BME280;28369;44.046;23.014;2023-05-29T04:13:05;101050.31;;;30.09;43.30
42725;BME280;28369;44.046;23.014;2023-05-29T04:15:33;101027.56;;;30.10;43.28
42725;BME280;28369;44.046;23.014;2023-05-29T04:18:00;101045.25;;;29.96;44.09
42725;BME280;28369;44.046;23.014;2023-05-29T04:20:25;101063.38;;;30.12;43.63
42725;BME280;28369;44.046;23.014;2023-05-29T04:22:51;101050.22;;;29.36;44.64
42725;BME280;28369;44.046;23.014;2023-05-29T04:25:17;101059.59;;;28.88;45.89
42725;BME280;28369;44.046;23.014;2023-05-29T04:27:43;100962.63;;;27.98;47.41
42725;BME280;28369;44.046;23.014;2023-05-29T04:30:14;101069.84;;;29.14;46.30
42725;BME280;28369;44.046;23.014;2023-05-29T04:32:40;101078.38;;;29.35;45.87
42725;BME280;28369;44.046;23.014;2023-05-29T04:35:06;100945.44;;;27.81;46.97
42725;BME280;28369;44.046;23.014;2023-05-29T04:37:32;101076.31;;;29.13;46.55
42725;BME280;28369;44.046;23.014;2023-05-29T04:40:06;101069.50;;;28.82;46.33
42725;BME280;28369;44.046;23.014;2023-05-29T04:42:36;101037.34;;;28.45;47.34
42725;BME280;28369;44.046;23.014;2023-05-29T04:45:02;101051.41;;;28.83;46.94
42725;BME280;28369;44.046;23.014;2023-05-29T04:47:30;101056.41;;;29.65;45.18
42725;BME280;28369;44.046;23.014;2023-05-29T04:49:59;101039.75;;;29.74;44.91
42725;BME280;28369;44.046;23.014;2023-05-29T04:52:24;101073.22;;;30.19;44.20
42725;BME280;28369;44.046;23.014;2023-05-29T04:54:50;101080.72;;;30.50;43.88
42725;BME280;28369;44.046;23.014;2023-05-29T04:57:16;101074.47;;;29.60;44.73
42725;BME280;28369;44.046;23.014;2023-05-29T04:59:41;101087.19;;;29.93;44.29
42725;BME280;28369;44.046;23.014;2023-05-29T05:02:07;101077.28;;;30.38;42.80
42725;BME280;28369;44.046;23.014;2023-05-29T05:04:32;101063.94;;;30.54;42.89
42725;BME280;28369;44.046;23.014;2023-05-29T05:06:58;101100.22;;;31.14;42.10
42725;BME280;28369;44.046;23.014;2023-05-29T05:09:23;101082.84;;;30.93;41.90
42725;BME280;28369;44.046;23.014;2023-05-29T05:11:49;101088.13;;;31.27;41.63
42725;BME280;28369;44.046;23.014;2023-05-29T05:14:15;101085.50;;;30.88;41.72
42725;BME280;28369;44.046;23.014;2023-05-29T05:16:40;101074.81;;;31.58;40.59
42725;BME280;28369;44.046;23.014;2023-05-29T05:19:06;101050.06;;;32.39;38.93
42725;BME280;28369;44.046;23.014;2023-05-29T05:21:32;100991.97;;;32.77;38.54
42725;BME280;28369;44.046;23.014;2023-05-29T05:23:58;101091.47;;;34.03;37.11
42725;BME280;28369;44.046;23.014;2023-05-29T05:26:23;101101.75;;;34.37;36.32
42725;BME280;28369;44.046;23.014;2023-05-29T05:28:49;101078.41;;;33.79;36.24
42725;BME280;28369;44.046;23.014;2023-05-29T05:31:14;100968.59;;;32.86;36.25
42725;BME280;28369;44.046;23.014;2023-05-29T05:33:40;101111.09;;;33.58;36.62
42725;BME280;28369;44.046;23.014;2023-05-29T05:36:05;101102.88;;;33.17;36.86
42725;BME280;28369;44.046;23.014;2023-05-29T05:38:32;101102.31;;;33.15;36.60
42725;BME280;28369;44.046;23.014;2023-05-29T05:40:57;101103.47;;;33.35;36.37
42725;BME280;28369;44.046;23.014;2023-05-29T05:43:23;101103.34;;;32.88;37.12
42725;BME280;28369;44.046;23.014;2023-05-29T05:45:48;101105.50;;;32.86;36.91
42725;BME280;28369;44.046;23.014;2023-05-29T05:48:14;101082.66;;;32.98;37.01
42725;BME280;28369;44.046;23.014;2023-05-29T05:50:39;101093.06;;;33.11;37.07
42725;BME280;28369;44.046;23.014;2023-05-29T05:53:05;101056.88;;;32.37;38.03
42725;BME280;28369;44.046;23.014;2023-05-29T05:55:30;101065.13;;;32.63;37.42
42725;BME280;28369;44.046;23.014;2023-05-29T05:57:56;101092.38;;;32.68;37.24
42725;BME280;28369;44.046;23.014;2023-05-29T06:00:22;101108.81;;;32.99;36.94
42725;BME280;28369;44.046;23.014;2023-05-29T06:02:51;101104.66;;;32.22;38.32
42725;BME280;28369;44.046;23.014;2023-05-29T06:05:17;101057.88;;;32.20;37.67
42725;BME280;28369;44.046;23.014;2023-05-29T06:07:43;101080.88;;;32.02;37.82
42725;BME280;28369;44.046;23.014;2023-05-29T06:10:11;101082.78;;;32.50;37.65
42725;BME280;28369;44.046;23.014;2023-05-29T06:12:39;101101.00;;;32.54;37.93
42725;BME280;28369;44.046;23.014;2023-05-29T06:15:05;101088.75;;;32.47;37.84
42725;BME280;28369;44.046;23.014;2023-05-29T06:17:32;101099.44;;;31.78;39.12
42725;BME280;28369;44.046;23.014;2023-05-29T06:20:00;101090.50;;;32.15;38.95
42725;BME280;28369;44.046;23.014;2023-05-29T06:22:26;101134.03;;;32.68;38.29
42725;BME280;28369;44.046;23.014;2023-05-29T06:24:51;101125.06;;;32.73;36.99
42725;BME280;28369;44.046;23.014;2023-05-29T06:27:17;101137.63;;;32.89;37.46
42725;BME280;28369;44.046;23.014;2023-05-29T06:29:43;101124.25;;;32.72;37.39
42725;BME280;28369;44.046;23.014;2023-05-29T06:32:08;101137.38;;;32.91;37.00
42725;BME280;28369;44.046;23.014;2023-05-29T06:34:34;101130.31;;;32.90;37.68
42725;BME280;28369;44.046;23.014;2023-05-29T06:36:59;101142.03;;;33.01;37.21
42725;BME280;28369;44.046;23.014;2023-05-29T06:39:25;101143.22;;;33.31;37.69
42725;BME280;28369;44.046;23.014;2023-05-29T06:41:50;101130.16;;;33.33;37.58
42725;BME280;28369;44.046;23.014;2023-05-29T06:44:16;101129.63;;;33.67;36.41
42725;BME280;28369;44.046;23.014;2023-05-29T06:46:41;101071.59;;;33.46;36.14
42725;BME280;28369;44.046;23.014;2023-05-29T06:49:07;101135.09;;;33.51;36.44
42725;BME280;28369;44.046;23.014;2023-05-29T06:51:33;101064.72;;;33.12;36.95
42725;BME280;28369;44.046;23.014;2023-05-29T06:53:59;101114.94;;;33.78;36.17
42725;BME280;28369;44.046;23.014;2023-05-29T06:56:24;101140.28;;;33.99;36.48
42725;BME280;28369;44.046;23.014;2023-05-29T06:58:51;101096.94;;;33.72;36.35
42725;BME280;28369;44.046;23.014;2023-05-29T07:01:16;101054.66;;;33.69;36.06
42725;BME280;28369;44.046;23.014;2023-05-29T07:03:42;101123.06;;;33.32;37.14
42725;BME280;28369;44.046;23.014;2023-05-29T07:06:08;101126.41;;;33.80;36.37
42725;BME280;28369;44.046;23.014;2023-05-29T07:08:33;101119.84;;;33.76;36.78
42725;BME280;28369;44.046;23.014;2023-05-29T07:10:59;101090.41;;;33.83;36.57
42725;BME280;28369;44.046;23.014;2023-05-29T07:13:25;101131.59;;;32.72;39.09
42725;BME280;28369;44.046;23.014;2023-05-29T07:15:52;101093.38;;;33.30;38.12
42725;BME280;28369;44.046;23.014;2023-05-29T07:18:17;101132.34;;;33.67;38.14
42725;BME280;28369;44.046;23.014;2023-05-29T07:20:43;101134.00;;;34.09;37.37
42725;BME280;28369;44.046;23.014;2023-05-29T07:23:08;101120.34;;;34.14;37.40
42725;BME280;28369;44.046;23.014;2023-05-29T07:25:34;101131.69;;;34.63;37.10
42725;BME280;28369;44.046;23.014;2023-05-29T07:27:59;101124.56;;;34.72;36.40
42725;BME280;28369;44.046;23.014;2023-05-29T07:30:24;101124.31;;;34.58;36.43
42725;BME280;28369;44.046;23.014;2023-05-29T07:32:50;101144.34;;;35.08;35.33
42725;BME280;28369;44.046;23.014;2023-05-29T07:35:15;101101.75;;;34.47;36.01
42725;BME280;28369;44.046;23.014;2023-05-29T07:37:41;101136.16;;;33.50;37.22
42725;BME280;28369;44.046;23.014;2023-05-29T07:40:06;101129.63;;;34.08;37.01
42725;BME280;28369;44.046;23.014;2023-05-29T07:42:35;101142.88;;;34.66;35.76
42725;BME280;28369;44.046;23.014;2023-05-29T07:45:01;101122.97;;;34.55;35.32
42725;BME280;28369;44.046;23.014;2023-05-29T07:47:26;101130.53;;;34.84;35.73
42725;BME280;28369;44.046;23.014;2023-05-29T07:49:52;101130.28;;;35.30;35.63
42725;BME280;28369;44.046;23.014;2023-05-29T07:52:18;101155.88;;;35.45;33.62
42725;BME280;28369;44.046;23.014;2023-05-29T07:54:44;101178.31;;;35.81;33.04
42725;BME280;28369;44.046;23.014;2023-05-29T07:57:10;101136.66;;;35.55;33.92
42725;BME280;28369;44.046;23.014;2023-05-29T07:59:36;101131.19;;;35.55;34.85
42725;BME280;28369;44.046;23.014;2023-05-29T08:02:02;101123.84;;;35.51;33.04
42725;BME280;28369;44.046;23.014;2023-05-29T08:04:30;101074.00;;;35.29;34.00
42725;BME280;28369;44.046;23.014;2023-05-29T08:06:56;101177.97;;;35.88;34.55
42725;BME280;28369;44.046;23.014;2023-05-29T08:09:22;101173.22;;;35.64;36.09
42725;BME280;28369;44.046;23.014;2023-05-29T08:11:47;101142.84;;;35.71;35.25
42725;BME280;28369;44.046;23.014;2023-05-29T08:14:16;101122.94;;;35.60;33.77
42725;BME280;28369;44.046;23.014;2023-05-29T08:16:42;101165.31;;;35.97;33.59
42725;BME280;28369;44.046;23.014;2023-05-29T08:19:07;101142.44;;;36.12;32.22
42725;BME280;28369;44.046;23.014;2023-05-29T08:21:33;101153.31;;;35.93;34.92
42725;BME280;28369;44.046;23.014;2023-05-29T08:23:59;101157.81;;;36.08;35.72
42725;BME280;28369;44.046;23.014;2023-05-29T08:26:25;101147.53;;;36.24;32.12
42725;BME280;28369;44.046;23.014;2023-05-29T08:28:51;101128.13;;;36.50;33.59
42725;BME280;28369;44.046;23.014;2023-05-29T08:31:16;101105.03;;;36.08;32.63
42725;BME280;28369;44.046;23.014;2023-05-29T08:33:42;101135.38;;;36.11;34.78
42725;BME280;28369;44.046;23.014;2023-05-29T08:36:08;101145.91;;;36.72;32.98
42725;BME280;28369;44.046;23.014;2023-05-29T08:38:35;101142.63;;;36.94;32.56
42725;BME280;28369;44.046;23.014;2023-05-29T08:41:02;101119.22;;;36.82;33.42
42725;BME280;28369;44.046;23.014;2023-05-29T08:43:31;101052.72;;;36.39;32.02
42725;BME280;28369;44.046;23.014;2023-05-29T08:46:02;101131.97;;;36.49;32.90
42725;BME280;28369;44.046;23.014;2023-05-29T08:48:29;101100.75;;;35.96;32.09
42725;BME280;28369;44.046;23.014;2023-05-29T08:50:57;101043.72;;;35.21;32.06
42725;BME280;28369;44.046;23.014;2023-05-29T08:53:24;101129.47;;;35.64;32.43
42725;BME280;28369;44.046;23.014;2023-05-29T08:55:51;101126.47;;;35.32;32.98
42725;BME280;28369;44.046;23.014;2023-05-29T08:58:19;101141.31;;;35.55;32.76
42725;BME280;28369;44.046;23.014;2023-05-29T09:00:46;101134.38;;;35.68;33.08
42725;BME280;28369;44.046;23.014;2023-05-29T09:03:12;101115.69;;;35.01;33.69
42725;BME280;28369;44.046;23.014;2023-05-29T09:05:41;101137.22;;;35.52;33.25
42725;BME280;28369;44.046;23.014;2023-05-29T09:08:10;101141.75;;;35.67;33.09
42725;BME280;28369;44.046;23.014;2023-05-29T09:10:44;101053.34;;;35.13;33.69
42725;BME280;28369;44.046;23.014;2023-05-29T09:13:13;101143.28;;;35.84;31.59
42725;BME280;28369;44.046;23.014;2023-05-29T09:15:40;101116.41;;;35.17;32.62
42725;BME280;28369;44.046;23.014;2023-05-29T09:18:08;101130.56;;;34.79;33.98
42725;BME280;28369;44.046;23.014;2023-05-29T09:20:34;101129.91;;;33.96;36.35
42725;BME280;28369;44.046;23.014;2023-05-29T09:23:01;101115.44;;;33.59;37.74
42725;BME280;28369;44.046;23.014;2023-05-29T09:25:29;101135.06;;;33.56;37.87
42725;BME280;28369;44.046;23.014;2023-05-29T09:28:00;101158.28;;;33.80;38.32
42725;BME280;28369;44.046;23.014;2023-05-29T09:30:38;101157.47;;;34.00;38.49
42725;BME280;28369;44.046;23.014;2023-05-29T09:33:15;101026.63;;;33.58;37.94
42725;BME280;28369;44.046;23.014;2023-05-29T09:35:46;101129.59;;;34.34;35.66
42725;BME280;28369;44.046;23.014;2023-05-29T09:38:14;101114.09;;;34.89;36.33
42725;BME280;28369;44.046;23.014;2023-05-29T09:40:42;101145.94;;;35.09;36.03
42725;BME280;28369;44.046;23.014;2023-05-29T09:43:11;101111.38;;;34.94;35.79
42725;BME280;28369;44.046;23.014;2023-05-29T09:45:41;101134.66;;;36.01;34.01
42725;BME280;28369;44.046;23.014;2023-05-29T09:48:08;101114.75;;;36.19;34.71
42725;BME280;28369;44.046;23.014;2023-05-29T09:50:37;101109.75;;;36.50;34.37
42725;BME280;28369;44.046;23.014;2023-05-29T09:53:03;101096.06;;;36.02;33.83
42725;BME280;28369;44.046;23.014;2023-05-29T09:55:29;101130.38;;;36.67;34.01
42725;BME280;28369;44.046;23.014;2023-05-29T09:57:57;101099.28;;;36.58;33.21
42725;BME280;28369;44.046;23.014;2023-05-29T10:00:24;101123.97;;;36.28;33.92
42725;BME280;28369;44.046;23.014;2023-05-29T10:02:50;101104.31;;;36.21;33.83
42725;BME280;28369;44.046;23.014;2023-05-29T10:05:16;101096.94;;;36.70;33.02
42725;BME280;28369;44.046;23.014;2023-05-29T10:07:45;101113.53;;;36.36;33.39
42725;BME280;28369;44.046;23.014;2023-05-29T10:10:14;101105.84;;;36.57;31.64
42725;BME280;28369;44.046;23.014;2023-05-29T10:12:45;100982.00;;;36.03;31.42
42725;BME280;28369;44.046;23.014;2023-05-29T10:15:16;101037.72;;;36.07;30.83
42725;BME280;28369;44.046;23.014;2023-05-29T10:17:55;101015.28;;;36.10;31.77
42725;BME280;28369;44.046;23.014;2023-05-29T10:20:22;101091.22;;;36.18;30.35
42725;BME280;28369;44.046;23.014;2023-05-29T10:22:51;101091.81;;;36.15;31.16
42725;BME280;28369;44.046;23.014;2023-05-29T10:25:19;101057.50;;;35.74;30.94
42725;BME280;28369;44.046;23.014;2023-05-29T10:27:46;101032.63;;;35.71;31.57
42725;BME280;28369;44.046;23.014;2023-05-29T10:30:39;101084.75;;;35.79;32.49
42725;BME280;28369;44.046;23.014;2023-05-29T10:36:35;101086.53;;;36.91;30.14
42725;BME280;28369;44.046;23.014;2023-05-29T10:38:33;101072.69;;;36.58;30.63
42725;BME280;28369;44.046;23.014;2023-05-29T10:44:00;101078.66;;;35.93;30.44
42725;BME280;28369;44.046;23.014;2023-05-29T10:49:22;101073.22;;;35.88;30.00
42725;BME280;28369;44.046;23.014;2023-05-29T10:51:48;101045.44;;;36.05;29.47
42725;BME280;28369;44.046;23.014;2023-05-29T10:54:14;101057.75;;;36.26;30.49
42725;BME280;28369;44.046;23.014;2023-05-29T10:56:40;101071.91;;;36.77;29.84
42725;BME280;28369;44.046;23.014;2023-05-29T10:59:07;101063.38;;;36.59;28.61
42725;BME280;28369;44.046;23.014;2023-05-29T11:01:33;101065.47;;;36.67;29.42
42725;BME280;28369;44.046;23.014;2023-05-29T11:06:43;100989.31;;;36.70;28.52
42725;BME280;28369;44.046;23.014;2023-05-29T11:15:16;101047.50;;;37.51;28.71
42725;BME280;28369;44.046;23.014;2023-05-29T11:17:45;101044.81;;;37.13;27.01
42725;BME280;28369;44.046;23.014;2023-05-29T11:23:00;101039.03;;;36.77;30.47
42725;BME280;28369;44.046;23.014;2023-05-29T11:25:27;101020.41;;;35.92;29.05
42725;BME280;28369;44.046;23.014;2023-05-29T11:27:53;101031.91;;;36.13;30.15
42725;BME280;28369;44.046;23.014;2023-05-29T11:30:19;101042.19;;;36.03;30.65
42725;BME280;28369;44.046;23.014;2023-05-29T11:32:45;101050.25;;;35.89;30.23
42725;BME280;28369;44.046;23.014;2023-05-29T11:35:15;100984.22;;;35.47;29.84
42725;BME280;28369;44.046;23.014;2023-05-29T11:37:43;100942.72;;;35.10;30.03
42725;BME280;28369;44.046;23.014;2023-05-29T11:40:11;100953.88;;;34.40;31.00
42725;BME280;28369;44.046;23.014;2023-05-29T11:42:45;101013.59;;;35.31;30.84
42725;BME280;28369;44.046;23.014;2023-05-29T11:45:18;101032.84;;;35.50;30.35
42725;BME280;28369;44.046;23.014;2023-05-29T11:48:05;100998.81;;;34.98;31.84
42725;BME280;28369;44.046;23.014;2023-05-29T11:50:32;100976.75;;;35.23;31.82
42725;BME280;28369;44.046;23.014;2023-05-29T11:52:58;101016.19;;;35.46;30.23
42725;BME280;28369;44.046;23.014;2023-05-29T11:55:25;101003.84;;;35.54;30.71
42725;BME280;28369;44.046;23.014;2023-05-29T11:57:55;101012.88;;;35.15;31.03
42725;BME280;28369;44.046;23.014;2023-05-29T12:00:21;100994.84;;;34.19;33.28
42725;BME280;28369;44.046;23.014;2023-05-29T12:02:48;101001.06;;;35.25;31.46
42725;BME280;28369;44.046;23.014;2023-05-29T12:05:15;100995.50;;;35.94;30.38
42725;BME280;28369;44.046;23.014;2023-05-29T12:07:52;100982.97;;;36.12;30.16
42725;BME280;28369;44.046;23.014;2023-05-29T12:10:19;100993.78;;;35.74;30.67
42725;BME280;28369;44.046;23.014;2023-05-29T12:15:14;100989.50;;;36.16;30.55
42725;BME280;28369;44.046;23.014;2023-05-29T12:17:41;100966.00;;;35.91;29.07
42725;BME280;28369;44.046;23.014;2023-05-29T12:20:07;100980.97;;;36.18;28.24
42725;BME280;28369;44.046;23.014;2023-05-29T12:22:36;100976.41;;;36.13;28.58
42725;BME280;28369;44.046;23.014;2023-05-29T12:27:33;100932.97;;;36.06;28.28
42725;BME280;28369;44.046;23.014;2023-05-29T12:30:03;100975.34;;;36.33;28.54
42725;BME280;28369;44.046;23.014;2023-05-29T12:32:39;100953.06;;;36.40;28.91
42725;BME280;28369;44.046;23.014;2023-05-29T12:35:12;100967.50;;;36.64;28.29
42725;BME280;28369;44.046;23.014;2023-05-29T12:40:32;100937.44;;;36.59;28.19
42725;BME280;28369;44.046;23.014;2023-05-29T12:43:08;100852.25;;;36.28;28.08
42725;BME280;28369;44.046;23.014;2023-05-29T12:45:36;100870.06;;;36.06;27.63
42725;BME280;28369;44.046;23.014;2023-05-29T12:48:06;100941.16;;;36.69;28.04
42725;BME280;28369;44.046;23.014;2023-05-29T12:50:37;100927.47;;;36.69;28.34
42725;BME280;28369;44.046;23.014;2023-05-29T12:53:12;100932.63;;;36.89;28.13
42725;BME280;28369;44.046;23.014;2023-05-29T12:55:38;100862.63;;;36.64;28.05
42725;BME280;28369;44.046;23.014;2023-05-29T12:58:09;100925.69;;;36.78;28.61
42725;BME280;28369;44.046;23.014;2023-05-29T13:00:36;100924.00;;;36.63;28.63
42725;BME280;28369;44.046;23.014;2023-05-29T13:03:02;100915.75;;;37.15;27.84
42725;BME280;28369;44.046;23.014;2023-05-29T13:05:27;100931.72;;;37.41;28.66
42725;BME280;28369;44.046;23.014;2023-05-29T13:07:54;100831.81;;;36.91;28.43
42725;BME280;28369;44.046;23.014;2023-05-29T13:10:20;100935.28;;;37.55;28.95
42725;BME280;28369;44.046;23.014;2023-05-29T13:12:47;100929.91;;;37.64;27.37
42725;BME280;28369;44.046;23.014;2023-05-29T13:15:13;100884.44;;;36.88;28.33